Little Falls, Minnesota
Current Conditions -  °F | °C
As of 12:38 AM on Friday 19 Dec 2014 (Local Time) from KLXL Reporting Station
Overcast Overcast  
Wind Chill: 13°   Ceiling: 5500
Heat Index: 21°   Visibility: 10mi
Dew Point: 16°   Wind: 7mph
Humidity: 80%   Direction: 140°SE
Pressure: 30.23"   Gusts: NA
Location:  45.98°N, 94.37°W
Report Text: KLXL 190638Z AUTO 14006KT 10SM OVC055 M06/M09 A3023 RMK AO2
Loading
Personal Weather Stations






























Interactive Weather Map New forecast layout! Learn more

10-Day Weather Forecast

Advertisements
Track Severe Weather on mobile